createdAt,value
2023-09-07T00:01:42.668Z,20.14
2023-09-07T00:04:28.135Z,20.13
2023-09-07T00:07:13.819Z,20.12
2023-09-07T00:09:59.012Z,20.08
2023-09-07T00:12:45.338Z,20.08
2023-09-07T00:15:31.791Z,20.07
2023-09-07T00:18:19.986Z,20.06
2023-09-07T00:21:05.914Z,20.04
2023-09-07T00:23:51.231Z,20.01
2023-09-07T00:26:36.723Z,19.97
2023-09-07T00:29:21.845Z,19.94
2023-09-07T00:32:07.190Z,19.92
2023-09-07T00:34:52.655Z,19.89
2023-09-07T00:37:38.496Z,19.86
2023-09-07T00:40:24.259Z,19.87
2023-09-07T00:43:10.637Z,19.87
2023-09-07T00:45:56.445Z,19.89
2023-09-07T00:48:41.938Z,19.86
2023-09-07T00:51:27.717Z,19.86
2023-09-07T00:54:12.949Z,19.84
2023-09-07T00:56:58.445Z,19.82
2023-09-07T00:59:43.720Z,19.81
2023-09-07T01:02:30.908Z,19.79
2023-09-07T01:05:16.918Z,19.76
2023-09-07T01:08:13.215Z,19.74
2023-09-07T01:10:58.976Z,19.72
2023-09-07T01:13:44.743Z,19.70
2023-09-07T01:16:30.213Z,19.67
2023-09-07T01:19:15.924Z,19.66
2023-09-07T01:22:01.535Z,19.63
2023-09-07T01:24:47.924Z,19.58
2023-09-07T01:27:34.411Z,19.56
2023-09-07T01:30:19.892Z,19.52
2023-09-07T01:33:05.539Z,19.49
2023-09-07T01:35:50.954Z,19.46
2023-09-07T01:38:36.606Z,19.42
2023-09-07T01:41:22.208Z,19.39
2023-09-07T01:44:07.626Z,19.35
2023-09-07T01:46:53.466Z,19.30
2023-09-07T01:49:39.025Z,19.30
2023-09-07T01:52:24.441Z,19.27
2023-09-07T01:55:09.666Z,19.25
2023-09-07T01:57:54.755Z,19.23
2023-09-07T02:00:40.701Z,19.20
2023-09-07T02:03:26.948Z,19.16
2023-09-07T02:06:12.457Z,19.11
2023-09-07T02:08:57.911Z,19.10
2023-09-07T02:11:43.483Z,19.09
2023-09-07T02:14:29.008Z,19.08
2023-09-07T02:17:18.969Z,19.05
2023-09-07T02:20:11.292Z,19.04
2023-09-07T02:22:56.937Z,19.04
2023-09-07T02:25:42.413Z,19.04
2023-09-07T02:28:27.839Z,19.05
2023-09-07T02:31:13.039Z,19.08
2023-09-07T02:33:58.515Z,19.07
2023-09-07T02:36:44.050Z,19.06
2023-09-07T02:39:29.918Z,19.06
2023-09-07T02:42:15.424Z,19.05
2023-09-07T02:45:00.744Z,19.06
2023-09-07T02:47:47.611Z,19.06
2023-09-07T02:50:34.597Z,19.03
2023-09-07T02:53:20.106Z,19.03
2023-09-07T02:56:05.461Z,19.03
2023-09-07T02:58:51.154Z,19.01
2023-09-07T03:01:36.563Z,19.00
2023-09-07T03:04:22.840Z,18.99
2023-09-07T03:07:08.133Z,18.97
2023-09-07T03:09:54.088Z,18.96
2023-09-07T03:12:40.043Z,18.93
2023-09-07T03:15:25.437Z,18.92
2023-09-07T03:18:10.976Z,18.89
2023-09-07T03:21:01.065Z,18.86
2023-09-07T03:23:47.001Z,18.81
2023-09-07T03:26:34.212Z,18.80
2023-09-07T03:29:19.549Z,18.76
2023-09-07T03:32:05.666Z,18.72
2023-09-07T03:34:50.985Z,18.70
2023-09-07T03:37:38.737Z,18.67
2023-09-07T03:40:24.767Z,18.64
2023-09-07T03:43:10.559Z,18.61
2023-09-07T03:45:58.425Z,18.61
2023-09-07T03:48:44.083Z,18.59
2023-09-07T03:51:29.674Z,18.57
2023-09-07T03:54:14.938Z,18.53
2023-09-07T03:57:00.413Z,18.50
2023-09-07T03:59:46.126Z,18.47
2023-09-07T04:02:32.558Z,18.45
2023-09-07T04:05:18.231Z,18.43
2023-09-07T04:08:05.601Z,18.43
2023-09-07T04:10:51.157Z,18.40
2023-09-07T04:13:37.570Z,18.36
2023-09-07T04:16:22.977Z,18.35
2023-09-07T04:19:08.342Z,18.35
2023-09-07T04:21:53.888Z,18.34
2023-09-07T04:24:39.391Z,18.33
2023-09-07T04:27:24.815Z,18.32
2023-09-07T04:30:10.734Z,18.31
2023-09-07T04:32:56.579Z,18.29
2023-09-07T04:35:42.138Z,18.31
2023-09-07T04:38:27.621Z,18.31
2023-09-07T04:41:14.477Z,18.31
2023-09-07T04:44:00.303Z,18.33
2023-09-07T04:46:45.336Z,18.35
2023-09-07T04:49:31.128Z,18.35
2023-09-07T04:52:16.447Z,18.36
2023-09-07T04:55:02.901Z,18.36
2023-09-07T04:57:48.226Z,18.40
2023-09-07T05:00:33.411Z,18.44
2023-09-07T05:03:19.053Z,18.50
2023-09-07T05:06:05.532Z,18.55
2023-09-07T05:08:51.115Z,18.61
2023-09-07T05:11:36.741Z,18.66
2023-09-07T05:14:24.383Z,18.68
2023-09-07T05:17:09.918Z,18.70
2023-09-07T05:19:55.664Z,18.74
2023-09-07T05:22:42.171Z,18.78
2023-09-07T05:25:28.062Z,18.82
2023-09-07T05:28:15.724Z,18.88
2023-09-07T05:31:01.595Z,18.97
2023-09-07T05:33:47.094Z,19.06
2023-09-07T05:36:32.353Z,19.10
2023-09-07T05:39:17.850Z,19.15
2023-09-07T05:42:03.885Z,19.17
2023-09-07T05:44:49.502Z,19.21
2023-09-07T05:47:34.603Z,19.21
2023-09-07T05:50:19.981Z,19.26
2023-09-07T05:53:06.213Z,19.31
2023-09-07T05:55:52.204Z,19.38
2023-09-07T05:58:37.305Z,19.44
2023-09-07T06:01:22.848Z,19.53
2023-09-07T06:04:08.837Z,19.60
2023-09-07T06:06:54.568Z,19.70
2023-09-07T06:09:39.762Z,19.80
2023-09-07T06:12:24.852Z,19.90
2023-09-07T06:15:11.550Z,20.02
2023-09-07T06:17:57.187Z,20.14
2023-09-07T06:20:42.633Z,20.25
2023-09-07T06:23:28.395Z,20.29
2023-09-07T06:26:13.893Z,20.36
2023-09-07T06:28:59.253Z,20.42
2023-09-07T06:31:44.689Z,20.48
2023-09-07T06:34:29.964Z,20.55
2023-09-07T06:37:15.735Z,20.64
2023-09-07T16:41:54.320Z,26.20
2023-09-07T16:44:39.802Z,26.17
2023-09-07T16:47:25.236Z,26.15
2023-09-07T16:50:10.745Z,26.09
2023-09-07T16:52:57.909Z,26.03
2023-09-07T16:55:43.247Z,25.98
2023-09-07T16:58:55.471Z,25.93
2023-09-07T17:01:34.012Z,25.87
2023-09-07T17:04:31.123Z,25.82
2023-09-07T17:07:16.560Z,25.76
2023-09-07T17:10:01.663Z,25.70
2023-09-07T17:12:46.729Z,25.66
2023-09-07T17:15:32.212Z,25.59
2023-09-07T17:18:18.450Z,25.51
2023-09-07T17:21:07.031Z,25.47
2023-09-07T17:23:52.614Z,25.38
2023-09-07T17:26:38.376Z,25.32
2023-09-07T17:29:23.941Z,25.23
2023-09-07T17:32:09.242Z,25.15
2023-09-07T17:34:54.470Z,25.09
2023-09-07T17:37:40.867Z,25.02
2023-09-07T17:40:26.283Z,24.96
2023-09-07T17:43:11.693Z,24.90
2023-09-07T17:45:57.045Z,24.86
2023-09-07T17:48:42.485Z,24.79
2023-09-07T17:51:27.733Z,24.74
2023-09-07T17:54:12.971Z,24.68
2023-09-07T17:56:58.286Z,24.60
2023-09-07T17:59:43.664Z,24.53
2023-09-07T18:02:31.119Z,24.47
2023-09-07T18:05:21.652Z,24.40
2023-09-07T18:08:07.110Z,24.37
2023-09-07T18:10:52.305Z,24.32
2023-09-07T18:13:37.548Z,24.29
2023-09-07T18:16:24.677Z,24.24
2023-09-07T18:19:12.343Z,24.20
2023-09-07T18:22:00.381Z,24.16
2023-09-07T18:24:47.564Z,24.09
2023-09-07T18:27:33.009Z,24.05
2023-09-07T18:30:18.480Z,23.99
2023-09-07T18:33:04.888Z,23.92
2023-09-07T18:36:06.469Z,23.85
2023-09-07T18:38:51.916Z,23.79
2023-09-07T18:41:37.686Z,23.73
2023-09-07T18:44:22.892Z,23.69
2023-09-07T18:47:08.455Z,23.64
2023-09-07T18:49:53.800Z,23.60
2023-09-07T18:52:39.324Z,23.56
2023-09-07T18:55:24.640Z,23.51
2023-09-07T18:58:09.854Z,23.46
2023-09-07T19:00:55.565Z,23.41
2023-09-07T19:03:53.038Z,23.38
2023-09-07T19:06:39.920Z,23.33
2023-09-07T19:09:25.556Z,23.30
2023-09-07T19:12:10.850Z,23.27
2023-09-07T19:14:56.276Z,23.24
2023-09-07T19:17:41.854Z,23.19
2023-09-07T19:20:27.130Z,23.15
2023-09-07T19:23:12.604Z,23.08
2023-09-07T19:25:58.273Z,23.05
2023-09-07T19:28:43.468Z,23.02
2023-09-07T19:31:29.753Z,22.96
2023-09-07T19:34:15.078Z,22.92
2023-09-07T19:37:00.489Z,22.89
2023-09-07T19:39:45.757Z,22.84
2023-09-07T19:42:33.005Z,22.80
2023-09-07T19:45:18.657Z,22.75
2023-09-07T19:48:04.525Z,22.70
2023-09-07T19:50:49.729Z,22.66
2023-09-07T19:53:36.136Z,22.60
2023-09-07T19:56:25.004Z,22.55
2023-09-07T19:59:11.188Z,22.49
2023-09-07T20:01:58.581Z,22.45
2023-09-07T20:04:43.764Z,22.40
2023-09-07T20:07:29.035Z,22.36
2023-09-07T20:10:14.316Z,22.32
2023-09-07T20:12:59.557Z,22.27
2023-09-07T20:15:44.880Z,22.22
2023-09-07T20:18:30.731Z,22.18
2023-09-07T20:21:16.225Z,22.14
2023-09-07T20:24:01.676Z,22.12
2023-09-07T20:26:46.859Z,22.06
2023-09-07T20:29:32.237Z,22.02
2023-09-07T20:32:17.654Z,21.99
2023-09-07T20:35:03.122Z,21.94
2023-09-07T20:37:50.159Z,21.91
2023-09-07T20:40:35.848Z,21.86
2023-09-07T20:43:24.585Z,21.82
2023-09-07T20:46:10.097Z,21.77
2023-09-07T20:48:55.422Z,21.75
2023-09-07T20:51:41.079Z,21.70
2023-09-07T20:54:26.806Z,21.66
2023-09-07T20:57:11.971Z,21.61
2023-09-07T20:59:57.249Z,21.57
2023-09-07T21:02:42.496Z,21.56
2023-09-07T21:05:28.503Z,21.52
2023-09-07T21:08:13.704Z,21.48
2023-09-07T21:10:59.004Z,21.43
2023-09-07T21:13:44.373Z,21.39
2023-09-07T21:16:30.120Z,21.38
2023-09-07T21:19:15.601Z,21.33
2023-09-07T21:22:00.830Z,21.29
2023-09-07T21:24:46.202Z,21.27
2023-09-07T21:27:32.008Z,21.26
2023-09-07T21:30:18.192Z,21.22
2023-09-07T21:33:04.218Z,21.20
2023-09-07T21:35:49.632Z,21.17
2023-09-07T21:38:35.355Z,21.13
2023-09-07T21:41:21.159Z,21.12
2023-09-07T21:44:06.535Z,21.09
2023-09-07T21:46:52.002Z,21.05
2023-09-07T21:49:37.140Z,21.03
2023-09-07T21:52:23.130Z,21.02
2023-09-07T21:55:09.813Z,20.96
2023-09-07T21:57:55.070Z,20.94
2023-09-07T22:00:40.559Z,20.91
2023-09-07T22:03:25.918Z,20.89
2023-09-07T22:06:11.231Z,20.86
2023-09-07T22:08:56.739Z,20.83
2023-09-07T22:11:42.538Z,20.81
2023-09-07T22:14:27.941Z,20.77
2023-09-07T22:17:13.224Z,20.76
2023-09-07T22:19:59.337Z,20.74
2023-09-07T22:22:45.123Z,20.71
2023-09-07T22:25:30.536Z,20.69
2023-09-07T22:28:16.894Z,20.67
2023-09-07T22:31:02.609Z,20.65
2023-09-07T22:33:47.825Z,20.62
2023-09-07T22:36:33.278Z,20.60
2023-09-07T22:39:20.606Z,20.58
2023-09-07T22:42:06.073Z,20.57
2023-09-07T22:44:51.553Z,20.55
2023-09-07T22:47:36.904Z,20.51
2023-09-07T22:50:22.402Z,20.49
2023-09-07T22:53:07.556Z,20.47
2023-09-07T22:55:53.210Z,20.44
2023-09-07T22:58:41.136Z,20.42
2023-09-07T23:01:26.689Z,20.42
2023-09-07T23:04:12.226Z,20.38
2023-09-07T23:06:59.556Z,20.37
2023-09-07T23:09:46.399Z,20.35
2023-09-07T23:12:31.820Z,20.32
2023-09-07T23:15:18.925Z,20.32
2023-09-07T23:18:04.542Z,20.30
2023-09-07T23:20:50.628Z,20.29
2023-09-07T23:23:36.066Z,20.24
2023-09-07T23:26:22.262Z,20.24
2023-09-07T23:29:08.830Z,20.20
2023-09-07T23:31:54.649Z,20.20
2023-09-07T23:34:40.227Z,20.17
2023-09-07T23:37:25.457Z,20.15
2023-09-07T23:40:14.022Z,20.14
2023-09-07T23:42:59.744Z,20.12
2023-09-07T23:45:44.923Z,20.08
2023-09-07T23:48:30.256Z,20.07
2023-09-07T23:51:15.864Z,20.05
2023-09-07T23:54:01.234Z,20.04
2023-09-07T23:56:46.866Z,20.01
2023-09-07T23:59:32.076Z,19.99
